createdAt,value
2022-10-20T00:01:22.093Z,5.60
2022-10-20T00:03:52.709Z,6.20
2022-10-20T00:06:22.870Z,5.28
2022-10-20T00:08:51.845Z,5.68
2022-10-20T00:11:22.146Z,5.68
2022-10-20T00:13:52.789Z,5.70
2022-10-20T00:16:22.982Z,6.45
2022-10-20T00:18:52.807Z,5.60
2022-10-20T00:21:23.208Z,7.00
2022-10-20T00:23:52.126Z,6.25
2022-10-20T00:26:22.809Z,6.80
2022-10-20T00:28:51.908Z,6.32
2022-10-20T00:31:22.229Z,6.50
2022-10-20T00:33:50.531Z,5.93
2022-10-20T00:36:21.935Z,6.10
2022-10-20T00:38:51.139Z,5.97
2022-10-20T00:41:22.281Z,6.22
2022-10-20T00:43:54.670Z,5.78
2022-10-20T00:46:24.747Z,6.10
2022-10-20T00:48:55.605Z,5.63
2022-10-20T00:51:29.101Z,5.30
2022-10-20T00:54:01.343Z,7.25
2022-10-20T00:56:29.701Z,6.55
2022-10-20T00:58:58.136Z,5.10
2022-10-20T01:01:26.858Z,4.97
2022-10-20T01:03:55.255Z,5.22
2022-10-20T01:06:25.030Z,5.78
2022-10-20T01:08:55.094Z,5.30
2022-10-20T01:11:33.222Z,5.20
2022-10-20T01:14:21.569Z,6.72
2022-10-20T01:17:00.394Z,5.60
2022-10-20T01:20:12.869Z,5.03
2022-10-20T01:23:12.233Z,6.78
2022-10-20T01:25:56.721Z,5.88
2022-10-20T01:28:32.804Z,5.85
2022-10-20T01:31:04.622Z,6.00
2022-10-20T01:33:41.605Z,6.03
2022-10-20T01:36:18.728Z,8.23
2022-10-20T01:38:53.506Z,6.03
2022-10-20T01:41:33.081Z,6.10
2022-10-20T01:44:05.544Z,6.15
2022-10-20T01:46:35.159Z,6.40
2022-10-20T01:49:05.067Z,5.63
2022-10-20T01:51:33.864Z,5.57
2022-10-20T01:54:02.181Z,5.30
2022-10-20T01:56:39.498Z,5.60
2022-10-20T01:59:42.544Z,6.00
2022-10-20T02:02:33.216Z,8.45
2022-10-20T02:05:17.322Z,5.50
2022-10-20T02:07:45.916Z,6.18
2022-10-20T02:10:18.489Z,6.78
2022-10-20T02:12:51.715Z,5.57
2022-10-20T02:15:25.476Z,5.35
2022-10-20T02:17:57.797Z,5.60
2022-10-20T02:20:26.383Z,6.22
2022-10-20T02:22:55.699Z,5.65
2022-10-20T02:25:25.355Z,5.30
2022-10-20T02:27:55.973Z,5.60
2022-10-20T02:30:26.222Z,5.38
2022-10-20T02:32:54.515Z,5.40
2022-10-20T02:35:27.449Z,5.88
2022-10-20T02:37:55.688Z,5.50
2022-10-20T02:40:23.948Z,5.78
2022-10-20T02:42:52.317Z,5.15
2022-10-20T02:45:20.908Z,5.60
2022-10-20T02:47:50.638Z,5.88
2022-10-20T02:50:19.054Z,6.28
2022-10-20T02:52:47.428Z,5.85
2022-10-20T02:55:15.901Z,5.97
2022-10-20T02:57:44.345Z,6.90
2022-10-20T03:00:13.892Z,15.40
2022-10-20T03:02:42.235Z,6.57
2022-10-20T03:05:12.125Z,5.82
2022-10-20T03:07:40.490Z,6.15
2022-10-20T03:10:09.759Z,5.60
2022-10-20T03:12:38.055Z,6.38
2022-10-20T03:15:07.376Z,5.85
2022-10-20T03:17:36.175Z,6.15
2022-10-20T03:20:05.529Z,6.38
2022-10-20T03:22:35.195Z,6.88
2022-10-20T03:25:03.445Z,5.70
2022-10-20T03:27:31.714Z,5.70
2022-10-20T03:30:00.053Z,6.03
2022-10-20T03:32:28.340Z,5.75
2022-10-20T03:34:56.646Z,6.03
2022-10-20T03:37:25.031Z,5.20
2022-10-20T03:39:54.862Z,5.25
2022-10-20T03:42:23.199Z,5.40
2022-10-20T03:44:51.522Z,5.55
2022-10-20T03:47:19.823Z,5.13
2022-10-20T03:49:48.122Z,5.00
2022-10-20T03:52:16.486Z,4.93
2022-10-20T03:54:45.026Z,5.60
2022-10-20T03:57:14.735Z,5.73
2022-10-20T03:59:43.125Z,5.63
2022-10-20T04:02:24.695Z,5.40
2022-10-20T04:04:53.480Z,5.18
2022-10-20T04:07:21.828Z,5.03
2022-10-20T04:09:50.085Z,5.87
2022-10-20T04:12:20.017Z,6.73
2022-10-20T04:14:50.104Z,4.90
2022-10-20T04:17:18.417Z,5.20
2022-10-20T04:19:47.329Z,5.20
2022-10-20T04:22:15.745Z,6.53
2022-10-20T04:24:44.074Z,5.77
2022-10-20T04:27:12.591Z,5.23
2022-10-20T04:29:42.383Z,7.90
2022-10-20T04:32:10.792Z,7.40
2022-10-20T04:34:39.066Z,5.63
2022-10-20T04:37:07.523Z,6.47
2022-10-20T04:39:35.820Z,5.80
2022-10-20T04:42:04.220Z,5.60
2022-10-20T04:44:32.548Z,6.23
2022-10-20T04:47:02.356Z,6.70
2022-10-20T04:49:30.655Z,7.33
2022-10-20T04:52:01.131Z,5.37
2022-10-20T04:54:30.349Z,6.17
2022-10-20T04:56:58.730Z,6.23
2022-10-20T04:59:27.106Z,7.17
2022-10-20T05:01:55.454Z,6.37
2022-10-20T05:04:25.549Z,6.73
2022-10-20T05:06:53.901Z,5.70
2022-10-20T05:09:22.352Z,5.93
2022-10-20T05:11:50.663Z,6.27
2022-10-20T05:14:18.953Z,6.57
2022-10-20T05:16:47.318Z,6.77
2022-10-20T05:19:15.640Z,6.33
2022-10-20T05:21:45.557Z,6.37
2022-10-20T05:24:19.788Z,6.27
2022-10-20T05:26:49.908Z,6.07
2022-10-20T05:29:18.143Z,7.13
2022-10-20T05:31:46.424Z,7.00
2022-10-20T05:34:14.717Z,5.90
2022-10-20T05:36:44.440Z,6.30
2022-10-20T05:39:12.958Z,6.10
2022-10-20T05:41:41.461Z,5.77
2022-10-20T05:44:12.911Z,5.43
2022-10-20T05:46:42.725Z,7.00
2022-10-20T05:49:15.755Z,5.87
2022-10-20T05:51:47.257Z,5.20
2022-10-20T05:54:17.491Z,6.33
2022-10-20T05:56:45.829Z,5.77
2022-10-20T05:59:14.818Z,5.90
2022-10-20T06:01:49.108Z,6.17
2022-10-20T06:04:19.056Z,6.97
2022-10-20T06:06:49.050Z,6.40
2022-10-20T06:09:18.125Z,6.17
2022-10-20T06:11:46.474Z,6.53
2022-10-20T06:14:14.883Z,7.73
2022-10-20T06:16:43.104Z,9.63
2022-10-20T06:19:11.853Z,9.97
2022-10-20T06:21:40.214Z,8.97
2022-10-20T06:24:11.679Z,10.40
2022-10-20T06:26:40.766Z,9.13
2022-10-20T06:29:11.483Z,7.97
2022-10-20T06:31:41.269Z,7.90
2022-10-20T06:34:12.651Z,7.37
2022-10-20T06:36:42.324Z,7.53
2022-10-20T06:39:15.048Z,8.07
2022-10-20T06:41:43.706Z,7.20
2022-10-20T06:44:12.741Z,7.97
2022-10-20T06:46:41.095Z,7.30
2022-10-20T06:49:11.670Z,7.53
2022-10-20T06:51:40.492Z,7.70
2022-10-20T06:54:09.452Z,8.87
2022-10-20T06:56:41.330Z,9.50
2022-10-20T06:59:09.806Z,8.30
2022-10-20T07:01:40.097Z,7.70
2022-10-20T07:04:11.584Z,7.60
2022-10-20T07:06:41.816Z,8.87
2022-10-20T07:09:15.821Z,9.03
2022-10-20T07:11:46.156Z,8.60
2022-10-20T07:14:15.129Z,8.07
2022-10-20T07:16:43.518Z,8.10
2022-10-20T07:19:11.922Z,6.57
2022-10-20T07:21:41.756Z,6.80
2022-10-20T07:24:13.703Z,9.47
2022-10-20T07:26:42.833Z,6.33
2022-10-20T07:29:13.232Z,6.40
2022-10-20T07:31:43.400Z,6.05
2022-10-20T07:34:25.198Z,6.60
2022-10-20T07:36:55.451Z,6.50
2022-10-20T07:39:23.766Z,8.50
2022-10-20T07:41:52.096Z,9.63
2022-10-20T07:44:21.770Z,9.88
2022-10-20T07:46:50.209Z,11.68
2022-10-20T07:49:43.592Z,12.25
2022-10-20T07:52:07.443Z,16.90
2022-10-20T07:54:35.850Z,14.80
2022-10-20T07:57:04.139Z,13.18
2022-10-20T07:59:33.910Z,12.63
2022-10-20T08:02:02.301Z,14.00
2022-10-20T08:04:31.869Z,13.88
2022-10-20T08:07:01.110Z,14.63
2022-10-20T08:09:29.543Z,14.48
2022-10-20T08:11:58.045Z,14.95
2022-10-20T08:14:30.785Z,16.38
2022-10-20T08:17:00.599Z,16.55
2022-10-20T08:19:49.974Z,16.85
2022-10-20T08:22:19.993Z,15.68
2022-10-20T08:24:48.288Z,16.08
2022-10-20T08:27:16.607Z,16.02
2022-10-20T08:29:50.909Z,15.43
2022-10-20T08:32:35.208Z,15.55
2022-10-20T08:35:03.728Z,17.35
2022-10-20T08:37:32.405Z,19.42
2022-10-20T08:40:00.819Z,16.20
2022-10-20T08:42:29.160Z,15.35
2022-10-20T08:45:01.531Z,17.08
2022-10-20T08:47:34.314Z,20.20
2022-10-20T08:50:06.050Z,14.50
2022-10-20T08:52:34.705Z,20.20
2022-10-20T08:55:06.397Z,17.13
2022-10-20T08:57:37.243Z,16.88
2022-10-20T09:00:15.854Z,14.45
2022-10-20T09:02:48.716Z,16.80
2022-10-20T09:05:24.431Z,16.48
2022-10-20T09:07:53.863Z,16.17
2022-10-20T09:10:31.126Z,17.05
2022-10-20T09:13:00.399Z,17.88
2022-10-20T09:15:30.072Z,16.58
2022-10-20T09:18:01.940Z,20.00
2022-10-20T09:20:35.639Z,17.17
2022-10-20T09:23:07.846Z,17.05
2022-10-20T09:25:46.458Z,14.68
2022-10-20T09:28:22.809Z,16.38
2022-10-20T09:30:51.735Z,12.95
2022-10-20T09:33:29.034Z,14.38
2022-10-20T09:36:06.028Z,15.45
2022-10-20T09:38:36.638Z,14.20
2022-10-20T09:41:12.478Z,16.13
2022-10-20T09:43:50.011Z,15.98
2022-10-20T09:46:23.108Z,15.13
2022-10-20T09:48:52.451Z,13.95
2022-10-20T09:51:25.002Z,14.93
2022-10-20T09:53:59.967Z,13.98
2022-10-20T09:56:30.919Z,11.52
2022-10-20T09:59:01.592Z,13.93
2022-10-20T10:01:30.312Z,10.98
2022-10-20T10:04:02.090Z,10.60
2022-10-20T10:06:41.838Z,9.27
2022-10-20T10:09:27.245Z,9.27
2022-10-20T10:12:00.965Z,9.60
2022-10-20T10:14:29.408Z,8.07
2022-10-20T10:16:58.001Z,8.52
2022-10-20T10:19:28.723Z,9.50
2022-10-20T10:22:00.227Z,11.93
2022-10-20T10:24:40.468Z,8.82
2022-10-20T10:27:21.112Z,7.82
2022-10-20T10:29:49.600Z,11.48
2022-10-20T10:32:19.639Z,9.65
2022-10-20T10:35:11.177Z,8.85
2022-10-20T10:37:43.809Z,8.40
2022-10-20T10:40:17.727Z,8.23
2022-10-20T10:43:08.145Z,9.55
2022-10-20T10:45:46.438Z,8.68
2022-10-20T10:48:45.797Z,14.00
2022-10-20T10:51:23.435Z,11.63
2022-10-20T10:54:01.974Z,10.00
2022-10-20T10:56:38.669Z,11.82
2022-10-20T10:59:12.582Z,9.43
2022-10-20T11:02:03.663Z,7.05
2022-10-20T11:05:07.409Z,7.65
2022-10-20T11:07:42.890Z,8.15
2022-10-20T11:10:19.467Z,7.43
2022-10-20T11:13:01.694Z,6.32
2022-10-20T11:15:40.882Z,10.88
2022-10-20T11:18:18.712Z,6.38
2022-10-20T11:20:58.330Z,7.82
2022-10-20T11:23:59.737Z,7.68
2022-10-20T11:26:33.972Z,5.32
2022-10-20T11:29:05.295Z,7.22
2022-10-20T11:31:40.138Z,6.05
2022-10-20T11:34:15.342Z,4.72
2022-10-20T11:36:50.844Z,4.82
2022-10-20T11:39:26.329Z,6.22
2022-10-20T11:42:06.592Z,5.57
2022-10-20T11:44:41.332Z,8.45
2022-10-20T11:47:14.786Z,3.80
2022-10-20T11:49:43.641Z,4.10
2022-10-20T11:52:40.318Z,7.22
2022-10-20T11:55:40.207Z,3.15
2022-10-20T11:58:33.806Z,4.18
2022-10-20T12:01:18.869Z,4.13
2022-10-20T12:04:15.397Z,2.97
2022-10-20T12:07:09.079Z,4.18
2022-10-20T12:10:04.640Z,4.13
2022-10-20T12:12:41.406Z,4.38
2022-10-20T12:15:23.755Z,2.65
2022-10-20T12:17:54.190Z,4.50
2022-10-20T12:20:51.319Z,3.45
2022-10-20T12:23:55.087Z,3.20
2022-10-20T12:26:56.110Z,3.63
2022-10-20T12:29:55.958Z,3.40
2022-10-20T12:33:09.978Z,5.25
2022-10-20T12:36:02.408Z,3.80
2022-10-20T12:38:32.094Z,2.78
2022-10-20T12:41:02.710Z,6.05
2022-10-20T12:43:50.650Z,4.65
2022-10-20T12:46:23.329Z,4.10
2022-10-20T12:49:00.148Z,3.20
2022-10-20T12:51:41.155Z,3.15
2022-10-20T12:54:20.830Z,4.13
2022-10-20T12:56:50.091Z,3.38
2022-10-20T12:59:41.107Z,3.33
2022-10-20T13:02:49.717Z,4.43
2022-10-20T13:05:45.728Z,3.13
2022-10-20T13:08:32.860Z,4.15
2022-10-20T13:11:42.100Z,3.20
2022-10-20T13:14:55.461Z,3.22
2022-10-20T13:17:30.515Z,5.28
2022-10-20T13:20:02.107Z,4.88
2022-10-20T13:22:46.626Z,3.53
2022-10-20T13:25:30.760Z,3.55
2022-10-20T13:28:24.421Z,4.90
2022-10-20T13:31:11.144Z,3.17
2022-10-20T13:36:47.263Z,4.47
2022-10-20T13:39:22.793Z,5.05
2022-10-20T13:42:01.092Z,5.88
2022-10-20T13:44:40.530Z,2.85
2022-10-20T13:47:24.863Z,3.80
2022-10-20T13:50:06.037Z,5.03
2022-10-20T13:52:39.160Z,5.35
2022-10-20T13:55:17.257Z,3.63
2022-10-20T13:57:55.255Z,6.68
2022-10-20T14:00:27.305Z,3.13
2022-10-20T14:02:58.490Z,4.60
2022-10-20T14:05:28.801Z,3.75
2022-10-20T14:07:57.650Z,3.30
2022-10-20T14:10:33.532Z,5.53
2022-10-20T14:13:03.665Z,5.85
2022-10-20T14:15:34.917Z,6.32
2022-10-20T14:18:05.562Z,5.63
2022-10-20T14:20:37.517Z,3.40
2022-10-20T14:23:07.870Z,2.95
2022-10-20T14:25:39.500Z,4.65
2022-10-20T14:28:08.181Z,3.25
2022-10-20T14:30:40.139Z,3.90
2022-10-20T14:33:16.282Z,3.03
2022-10-20T14:35:46.951Z,2.92
2022-10-20T14:38:20.859Z,3.17
2022-10-20T14:40:56.509Z,5.10
2022-10-20T14:43:32.124Z,3.78
2022-10-20T14:46:02.837Z,4.07
2022-10-20T14:48:37.033Z,5.82
2022-10-20T14:51:30.224Z,6.40
2022-10-20T14:54:17.225Z,4.93
2022-10-20T14:56:48.539Z,4.93
2022-10-20T14:59:18.665Z,4.35
2022-10-20T15:02:01.410Z,5.35
2022-10-20T15:04:33.629Z,3.15
2022-10-20T15:07:07.092Z,3.55
2022-10-20T15:09:40.633Z,6.05
2022-10-20T15:12:17.061Z,3.63
2022-10-20T15:14:48.390Z,5.25
2022-10-20T15:17:37.474Z,3.47
2022-10-20T15:20:31.435Z,5.90
2022-10-20T15:23:01.560Z,4.57
2022-10-20T15:25:32.079Z,6.10
2022-10-20T15:28:01.913Z,4.43
2022-10-20T15:30:36.849Z,4.72
2022-10-20T15:33:05.311Z,5.95
2022-10-20T15:35:34.218Z,8.23
2022-10-20T15:38:02.561Z,13.60
2022-10-20T15:40:30.857Z,6.32
2022-10-20T15:42:59.156Z,8.45
2022-10-20T15:45:33.504Z,4.80
2022-10-20T15:48:01.747Z,6.57
2022-10-20T15:50:30.765Z,5.03
2022-10-20T15:52:59.063Z,5.70
2022-10-20T15:55:30.768Z,19.52
2022-10-20T15:57:59.108Z,7.43
2022-10-20T16:00:30.732Z,6.15
2022-10-20T16:02:59.045Z,6.20
2022-10-20T16:05:28.293Z,8.27
2022-10-20T16:07:57.566Z,4.78
2022-10-20T16:10:29.490Z,6.72
2022-10-20T16:12:59.066Z,8.10
2022-10-20T16:15:30.480Z,4.90
2022-10-20T16:17:59.750Z,6.28
2022-10-20T16:20:28.109Z,6.05
2022-10-20T16:22:56.476Z,6.72
2022-10-20T16:25:25.073Z,5.90
2022-10-20T16:27:53.564Z,4.43
2022-10-20T16:30:22.393Z,5.63
2022-10-20T16:32:52.594Z,6.55
2022-10-20T16:35:20.970Z,8.65
2022-10-20T16:37:49.350Z,5.95
2022-10-20T16:40:17.974Z,6.22
2022-10-20T16:42:46.541Z,5.45
2022-10-20T16:45:14.925Z,6.55
2022-10-20T16:47:43.333Z,6.97
2022-10-20T16:50:16.217Z,8.02
2022-10-20T16:52:44.991Z,5.28
2022-10-20T16:55:13.871Z,7.60
2022-10-20T16:57:42.642Z,4.13
2022-10-20T17:00:12.758Z,6.22
2022-10-20T17:02:43.248Z,5.80
2022-10-20T17:05:13.435Z,5.60
2022-10-20T17:07:41.853Z,3.97
2022-10-20T17:10:10.816Z,5.00
2022-10-20T17:12:39.381Z,6.85
2022-10-20T17:15:09.115Z,6.68
2022-10-20T17:17:37.746Z,5.00
2022-10-20T17:20:07.641Z,3.95
2022-10-20T17:22:37.569Z,4.43
2022-10-20T17:25:07.507Z,4.90
2022-10-20T17:27:36.134Z,3.63
2022-10-20T17:30:04.966Z,5.00
2022-10-20T17:32:33.346Z,3.97
2022-10-20T17:35:01.759Z,5.45
2022-10-20T17:37:30.181Z,4.50
2022-10-20T17:40:00.025Z,5.20
2022-10-20T17:42:28.647Z,7.70
2022-10-20T17:44:56.993Z,5.40
2022-10-20T17:47:25.412Z,4.68
2022-10-20T17:49:53.663Z,7.47
2022-10-20T17:52:22.098Z,6.07
2022-10-20T17:54:50.610Z,4.45
2022-10-20T17:57:20.388Z,6.03
2022-10-20T17:59:54.073Z,4.03
2022-10-20T18:02:24.860Z,4.07
2022-10-20T18:04:53.219Z,3.78
2022-10-20T18:07:21.580Z,4.88
2022-10-20T18:09:50.043Z,4.82
2022-10-20T18:12:20.090Z,5.72
2022-10-20T18:14:48.728Z,4.18
2022-10-20T18:17:17.079Z,3.47
2022-10-20T18:19:45.512Z,5.38
2022-10-20T18:22:14.256Z,4.70
2022-10-20T18:24:43.105Z,4.50
2022-10-20T18:27:11.514Z,4.53
2022-10-20T18:29:41.737Z,4.45
2022-10-20T18:32:10.130Z,3.20
2022-10-20T18:34:39.180Z,3.92
2022-10-20T18:37:07.508Z,3.75
2022-10-20T18:39:36.532Z,5.68
2022-10-20T18:42:05.182Z,4.15
2022-10-20T18:44:33.967Z,5.97
2022-10-20T18:47:04.018Z,5.85
2022-10-20T18:49:32.624Z,5.88
2022-10-20T18:52:03.034Z,7.90
2022-10-20T18:54:31.647Z,5.22
2022-10-20T18:57:00.167Z,3.75
2022-10-20T18:59:28.534Z,4.75
2022-10-20T19:01:56.789Z,4.40
2022-10-20T19:04:26.512Z,6.30
2022-10-20T19:06:54.817Z,5.07
2022-10-20T19:09:23.501Z,6.63
2022-10-20T19:11:51.930Z,4.63
2022-10-20T19:14:20.304Z,6.70
2022-10-20T19:16:49.980Z,6.32
2022-10-20T19:19:18.641Z,4.10
2022-10-20T19:21:48.375Z,5.57
2022-10-20T19:24:19.380Z,5.13
2022-10-20T19:26:57.021Z,3.50
2022-10-20T19:29:36.862Z,3.75
2022-10-20T19:32:07.501Z,5.55
2022-10-20T19:34:38.401Z,3.40
2022-10-20T19:37:08.909Z,5.68
2022-10-20T19:39:39.808Z,4.45
2022-10-20T19:42:09.408Z,5.05
2022-10-20T19:44:38.072Z,5.93
2022-10-20T19:47:08.179Z,5.40
2022-10-20T19:49:37.743Z,6.97
2022-10-20T19:52:09.220Z,5.43
2022-10-20T19:54:37.896Z,6.18
2022-10-20T19:57:07.050Z,5.68
2022-10-20T19:59:35.441Z,4.50
2022-10-20T20:02:03.839Z,5.32
2022-10-20T20:04:32.147Z,6.30
2022-10-20T20:07:02.436Z,6.20
2022-10-20T20:09:32.498Z,4.70
2022-10-20T20:12:00.796Z,6.15
2022-10-20T20:14:29.526Z,5.00
2022-10-20T20:16:57.956Z,4.65
2022-10-20T20:19:28.427Z,4.93
2022-10-20T20:21:56.750Z,5.25
2022-10-20T20:24:25.292Z,6.95
2022-10-20T20:26:55.362Z,5.60
2022-10-20T20:29:23.836Z,4.32
2022-10-20T20:31:52.119Z,5.53
2022-10-20T20:34:20.398Z,4.30
2022-10-20T20:36:49.256Z,4.63
2022-10-20T20:39:17.662Z,4.03
2022-10-20T20:41:47.093Z,4.10
2022-10-20T20:44:17.157Z,6.57
2022-10-20T20:46:45.585Z,6.03
2022-10-20T20:49:14.199Z,3.63
2022-10-20T20:51:42.595Z,4.80
2022-10-20T20:54:11.558Z,4.43
2022-10-20T20:56:39.838Z,5.75
2022-10-20T20:59:08.145Z,4.57
2022-10-20T21:01:37.827Z,5.43
2022-10-20T21:04:10.347Z,5.43
2022-10-20T21:07:00.758Z,7.93
2022-10-20T21:09:29.063Z,6.30
2022-10-20T21:11:57.766Z,4.13
2022-10-20T21:14:26.135Z,6.55
2022-10-20T21:16:55.811Z,3.50
2022-10-20T21:19:24.308Z,4.68
2022-10-20T21:21:57.418Z,4.60
2022-10-20T21:24:26.732Z,4.55
2022-10-20T21:26:55.135Z,5.88
2022-10-20T21:29:23.524Z,8.88
2022-10-20T21:31:51.898Z,4.50
2022-10-20T21:34:21.544Z,3.83
2022-10-20T21:36:49.866Z,5.47
2022-10-20T21:39:18.199Z,4.47
2022-10-20T21:41:47.539Z,9.30
2022-10-20T21:44:16.456Z,4.88
2022-10-20T21:46:47.844Z,5.35
2022-10-20T21:49:18.752Z,3.42
2022-10-20T21:51:50.774Z,4.32
2022-10-20T21:56:50.343Z,3.78
2022-10-20T21:59:21.709Z,4.03
2022-10-20T22:01:51.205Z,3.55
2022-10-20T22:04:21.923Z,3.65
2022-10-20T22:06:51.690Z,4.45
2022-10-20T22:09:21.077Z,4.20
2022-10-20T22:11:55.241Z,5.82
2022-10-20T22:14:23.763Z,4.13
2022-10-20T22:16:52.334Z,4.85
2022-10-20T22:19:22.833Z,5.88
2022-10-20T22:21:53.673Z,5.00
2022-10-20T22:24:22.759Z,3.80
2022-10-20T22:26:52.045Z,3.80
2022-10-20T22:29:21.513Z,3.88
2022-10-20T22:31:50.406Z,4.15
2022-10-20T22:34:18.756Z,4.55
2022-10-20T22:36:47.257Z,5.63
2022-10-20T22:39:16.925Z,4.72
2022-10-20T22:41:45.719Z,3.75
2022-10-20T22:44:14.039Z,3.78
2022-10-20T22:46:42.401Z,5.18
2022-10-20T22:49:10.754Z,3.95
2022-10-20T22:51:39.164Z,6.22
2022-10-20T22:54:08.123Z,4.10
2022-10-20T22:56:37.873Z,6.28
2022-10-20T22:59:06.195Z,3.67
2022-10-20T23:01:34.606Z,4.25
2022-10-20T23:04:03.013Z,4.40
2022-10-20T23:06:31.356Z,4.55
2022-10-20T23:09:00.182Z,4.30
2022-10-20T23:11:29.718Z,4.90
2022-10-20T23:13:59.405Z,4.93
2022-10-20T23:16:28.101Z,5.25
2022-10-20T23:18:56.453Z,4.00
2022-10-20T23:21:24.783Z,4.22
2022-10-20T23:23:53.393Z,4.20
2022-10-20T23:26:21.681Z,3.75
2022-10-20T23:28:50.421Z,6.90
2022-10-20T23:31:22.348Z,5.68
2022-10-20T23:33:54.977Z,5.20
2022-10-20T23:36:23.755Z,5.95
2022-10-20T23:38:52.064Z,5.05
2022-10-20T23:41:20.548Z,4.22
2022-10-20T23:43:48.885Z,5.85
2022-10-20T23:46:17.264Z,6.30
2022-10-20T23:48:46.995Z,5.07
2022-10-20T23:51:15.351Z,5.97
2022-10-20T23:53:43.693Z,3.58
2022-10-20T23:56:11.970Z,4.38
2022-10-20T23:58:40.976Z,3.65
